createdAt,value
2017-11-06T00:00:26.484Z,1008.27
2017-11-06T00:01:27.081Z,1008.26
2017-11-06T00:02:27.677Z,1008.28
2017-11-06T00:03:28.267Z,1008.32
2017-11-06T00:04:28.864Z,1008.32
2017-11-06T00:05:29.465Z,1008.28
2017-11-06T00:06:30.057Z,1008.31
2017-11-06T00:07:30.655Z,1008.30
2017-11-06T00:08:31.257Z,1008.27
2017-11-06T00:09:31.839Z,1008.27
2017-11-06T00:10:32.439Z,1008.24
2017-11-06T00:11:33.026Z,1008.24
2017-11-06T00:12:33.627Z,1008.26
2017-11-06T00:13:34.226Z,1008.27
2017-11-06T00:14:34.826Z,1008.27
2017-11-06T00:15:35.417Z,1008.30
2017-11-06T00:16:36.030Z,1008.27
2017-11-06T00:17:36.612Z,1008.24
2017-11-06T00:18:37.213Z,1008.23
2017-11-06T00:19:37.820Z,1008.30
2017-11-06T00:20:38.422Z,1008.30
2017-11-06T00:21:39.023Z,1008.26
2017-11-06T00:22:39.621Z,1008.28
2017-11-06T00:23:40.212Z,1008.30
2017-11-06T00:24:40.815Z,1008.32
2017-11-06T00:25:41.405Z,1008.33
2017-11-06T00:26:42.007Z,1008.35
2017-11-06T00:27:42.594Z,1008.38
2017-11-06T00:28:43.197Z,1008.41
2017-11-06T00:29:43.799Z,1008.41
2017-11-06T00:30:44.389Z,1008.47
2017-11-06T00:31:44.982Z,1008.43
2017-11-06T00:32:45.572Z,1008.45
2017-11-06T00:33:46.176Z,1008.49
2017-11-06T00:34:46.782Z,1008.49
2017-11-06T00:35:47.383Z,1008.47
2017-11-06T00:36:47.981Z,1008.50
2017-11-06T00:37:48.585Z,1008.50
2017-11-06T00:38:49.187Z,1008.50
2017-11-06T00:39:49.781Z,1008.54
2017-11-06T00:40:50.382Z,1008.55
2017-11-06T00:41:50.990Z,1008.60
2017-11-06T00:42:51.576Z,1008.57
2017-11-06T00:43:52.162Z,1008.57
2017-11-06T00:44:52.768Z,1008.58
2017-11-06T00:45:53.362Z,1008.58
2017-11-06T00:46:53.961Z,1008.59
2017-11-06T00:47:54.554Z,1008.60
2017-11-06T00:48:55.157Z,1008.60
2017-11-06T00:49:55.761Z,1008.57
2017-11-06T00:50:56.360Z,1008.59
2017-11-06T00:51:56.956Z,1008.58
2017-11-06T00:52:57.556Z,1008.62
2017-11-06T00:53:58.157Z,1008.63
2017-11-06T00:54:58.767Z,1008.63
2017-11-06T00:55:59.371Z,1008.60
2017-11-06T00:56:59.974Z,1008.62
2017-11-06T00:58:00.566Z,1008.62
2017-11-06T00:59:01.168Z,1008.64
2017-11-06T01:00:01.776Z,1008.63
2017-11-06T01:01:46.575Z,1008.61
2017-11-06T01:02:47.176Z,1008.58
2017-11-06T01:03:47.765Z,1008.59
2017-11-06T01:04:48.369Z,1008.62
2017-11-06T01:05:48.965Z,1008.61
2017-11-06T01:06:49.574Z,1008.65
2017-11-06T01:07:50.170Z,1008.69
2017-11-06T01:08:50.774Z,1008.63
2017-11-06T01:09:51.370Z,1008.66
2017-11-06T01:10:51.970Z,1008.71
2017-11-06T01:11:52.564Z,1008.69
2017-11-06T01:12:53.167Z,1008.71
2017-11-06T01:13:53.755Z,1008.72
2017-11-06T01:14:54.363Z,1008.70
2017-11-06T01:15:54.968Z,1008.75
2017-11-06T01:16:55.564Z,1008.73
2017-11-06T01:17:56.164Z,1008.78
2017-11-06T01:18:56.768Z,1008.77
2017-11-06T01:19:57.371Z,1008.82
2017-11-06T01:20:58.005Z,1008.81
2017-11-06T01:21:58.581Z,1008.86
2017-11-06T01:22:59.180Z,1008.86
2017-11-06T01:23:59.787Z,1008.86
2017-11-06T01:25:00.381Z,1008.83
2017-11-06T01:26:00.976Z,1008.93
2017-11-06T01:27:01.585Z,1008.91
2017-11-06T01:28:02.179Z,1008.91
2017-11-06T01:29:02.768Z,1008.97
2017-11-06T01:30:03.367Z,1008.96
2017-11-06T01:31:03.973Z,1008.98
2017-11-06T01:32:04.579Z,1008.96
2017-11-06T01:33:05.179Z,1009.01
2017-11-06T01:34:05.774Z,1009.03
2017-11-06T01:35:06.379Z,1009.03
2017-11-06T01:36:06.980Z,1009.02
2017-11-06T01:37:07.577Z,1009.04
2017-11-06T01:38:08.176Z,1009.05
2017-11-06T01:39:08.774Z,1009.04
2017-11-06T01:40:09.389Z,1009.04
2017-11-06T01:41:09.977Z,1009.07
2017-11-06T01:42:10.581Z,1009.10
2017-11-06T01:43:11.168Z,1009.11
2017-11-06T01:44:11.789Z,1009.11
2017-11-06T01:45:12.380Z,1009.08
2017-11-06T01:46:12.988Z,1009.12
2017-11-06T01:47:13.587Z,1009.12
2017-11-06T01:48:14.183Z,1009.12
2017-11-06T01:49:14.786Z,1009.06
2017-11-06T01:50:15.386Z,1009.11
2017-11-06T01:51:15.991Z,1009.19
2017-11-06T01:52:16.593Z,1009.17
2017-11-06T01:53:17.199Z,1009.16
2017-11-06T01:54:17.807Z,1009.16
2017-11-06T01:55:18.408Z,1009.19
2017-11-06T01:56:19.009Z,1009.19
2017-11-06T01:57:19.604Z,1009.20
2017-11-06T01:58:20.204Z,1009.20
2017-11-06T01:59:20.807Z,1009.15
2017-11-06T02:00:21.415Z,1009.15
2017-11-06T02:01:22.015Z,1009.18
2017-11-06T02:02:22.611Z,1009.19
2017-11-06T02:03:23.212Z,1009.21
2017-11-06T02:04:23.807Z,1009.20
2017-11-06T02:05:24.427Z,1009.19
2017-11-06T02:06:25.011Z,1009.18
2017-11-06T02:07:25.611Z,1009.18
2017-11-06T02:08:26.198Z,1009.18
2017-11-06T02:09:26.801Z,1009.18
2017-11-06T02:10:27.397Z,1009.23
2017-11-06T02:11:27.986Z,1009.19
2017-11-06T02:12:28.588Z,1009.22
2017-11-06T02:13:29.192Z,1009.19
2017-11-06T02:14:29.797Z,1009.22
2017-11-06T02:15:30.398Z,1009.21
2017-11-06T02:16:30.996Z,1009.23
2017-11-06T02:17:31.597Z,1009.22
2017-11-06T02:18:32.201Z,1009.27
2017-11-06T02:19:32.798Z,1009.25
2017-11-06T02:20:33.395Z,1009.27
2017-11-06T02:21:33.991Z,1009.29
2017-11-06T02:22:34.597Z,1009.31
2017-11-06T02:23:35.198Z,1009.35
2017-11-06T02:24:35.794Z,1009.37
2017-11-06T02:25:36.395Z,1009.35
2017-11-06T02:26:36.998Z,1009.36
2017-11-06T02:27:37.602Z,1009.41
2017-11-06T02:28:38.199Z,1009.39
2017-11-06T02:29:38.799Z,1009.38
2017-11-06T02:30:39.395Z,1009.40
2017-11-06T02:31:39.998Z,1009.41
2017-11-06T02:32:40.587Z,1009.41
2017-11-06T02:33:41.182Z,1009.43
2017-11-06T02:34:41.785Z,1009.44
2017-11-06T02:35:42.376Z,1009.44
2017-11-06T02:36:42.978Z,1009.46
2017-11-06T02:37:43.577Z,1009.48
2017-11-06T02:38:44.179Z,1009.45
2017-11-06T02:39:44.776Z,1009.50
2017-11-06T02:40:45.380Z,1009.44
2017-11-06T02:41:45.980Z,1009.47
2017-11-06T02:42:46.584Z,1009.42
2017-11-06T02:43:47.163Z,1009.45
2017-11-06T02:44:47.766Z,1009.48
2017-11-06T02:45:48.373Z,1009.45
2017-11-06T02:46:48.974Z,1009.43
2017-11-06T02:47:49.569Z,1009.48
2017-11-06T02:48:50.162Z,1009.50
2017-11-06T02:49:50.765Z,1009.51
2017-11-06T02:50:51.372Z,1009.49
2017-11-06T02:51:51.954Z,1009.47
2017-11-06T02:52:52.554Z,1009.48
2017-11-06T02:53:53.155Z,1009.51
2017-11-06T02:54:53.752Z,1009.48
2017-11-06T02:55:54.346Z,1009.51
2017-11-06T02:56:54.945Z,1009.52
2017-11-06T02:57:55.547Z,1009.53
2017-11-06T02:58:56.156Z,1009.57
2017-11-06T02:59:56.755Z,1009.55
2017-11-06T03:00:57.360Z,1009.55
2017-11-06T03:01:57.949Z,1009.56
2017-11-06T03:02:58.557Z,1009.58
2017-11-06T03:03:59.155Z,1009.66
2017-11-06T03:04:59.750Z,1009.65
2017-11-06T03:06:00.352Z,1009.65
2017-11-06T03:07:00.955Z,1009.66
2017-11-06T03:08:01.542Z,1009.67
2017-11-06T03:09:02.130Z,1009.67
2017-11-06T03:10:02.721Z,1009.67
2017-11-06T03:11:03.319Z,1009.64
2017-11-06T03:12:03.913Z,1009.71
2017-11-06T03:13:04.521Z,1009.72
2017-11-06T03:14:05.112Z,1009.78
2017-11-06T03:15:05.720Z,1009.75
2017-11-06T03:16:06.314Z,1009.78
2017-11-06T03:17:06.906Z,1009.79
2017-11-06T03:18:07.500Z,1009.81
2017-11-06T03:19:08.121Z,1009.86
2017-11-06T03:20:08.702Z,1009.88
2017-11-06T03:21:09.304Z,1009.88
2017-11-06T03:22:09.929Z,1009.91
2017-11-06T03:23:10.506Z,1009.91
2017-11-06T03:24:11.111Z,1009.91
2017-11-06T03:25:11.711Z,1009.93
2017-11-06T03:26:12.306Z,1009.98
2017-11-06T03:27:12.905Z,1009.99
2017-11-06T03:28:13.504Z,1009.98
2017-11-06T03:29:14.108Z,1009.97
2017-11-06T03:30:14.714Z,1010.00
2017-11-06T03:31:15.311Z,1009.99
2017-11-06T03:32:15.908Z,1010.06
2017-11-06T03:33:16.508Z,1010.00
2017-11-06T03:34:17.114Z,1010.03
2017-11-06T03:35:17.713Z,1010.04
2017-11-06T03:36:18.312Z,1010.05
2017-11-06T03:37:18.911Z,1010.06
2017-11-06T03:38:19.513Z,1010.07
2017-11-06T03:39:20.115Z,1010.09
2017-11-06T03:40:20.718Z,1010.11
2017-11-06T03:41:21.320Z,1010.18
2017-11-06T03:42:21.933Z,1010.17
2017-11-06T03:43:22.518Z,1010.18
2017-11-06T03:44:23.119Z,1010.16
2017-11-06T03:45:23.723Z,1010.17
2017-11-06T03:46:24.319Z,1010.17
2017-11-06T03:47:24.921Z,1010.22
2017-11-06T03:48:25.517Z,1010.24
2017-11-06T03:49:26.121Z,1010.25
2017-11-06T03:50:26.710Z,1010.28
2017-11-06T03:51:27.300Z,1010.31
2017-11-06T03:52:27.904Z,1010.30
2017-11-06T03:53:28.510Z,1010.26
2017-11-06T03:54:29.113Z,1010.31
2017-11-06T03:55:29.720Z,1010.29
2017-11-06T03:56:30.318Z,1010.29
2017-11-06T03:57:30.923Z,1010.33
2017-11-06T03:58:31.527Z,1010.32
2017-11-06T03:59:32.128Z,1010.31
2017-11-06T04:00:32.724Z,1010.30
2017-11-06T04:01:33.324Z,1010.29
2017-11-06T04:02:33.923Z,1010.35
2017-11-06T04:03:34.520Z,1010.36
2017-11-06T04:04:35.123Z,1010.36
2017-11-06T04:05:35.729Z,1010.35
2017-11-06T04:06:36.324Z,1010.34
2017-11-06T04:07:36.928Z,1010.35
2017-11-06T04:08:37.528Z,1010.37
2017-11-06T04:09:38.118Z,1010.39
2017-11-06T04:10:38.721Z,1010.43
2017-11-06T04:11:39.318Z,1010.41
2017-11-06T04:12:39.932Z,1010.42
2017-11-06T04:13:40.511Z,1010.43
2017-11-06T04:14:41.116Z,1010.46
2017-11-06T04:15:41.717Z,1010.44
2017-11-06T04:16:42.319Z,1010.43
2017-11-06T04:17:42.916Z,1010.42
2017-11-06T04:18:43.518Z,1010.46
2017-11-06T04:19:44.122Z,1010.46
2017-11-06T04:20:44.705Z,1010.48
2017-11-06T04:21:45.302Z,1010.47
2017-11-06T04:22:45.903Z,1010.44
2017-11-06T04:23:46.496Z,1010.49
2017-11-06T04:24:47.119Z,1010.53
2017-11-06T04:25:47.696Z,1010.54
2017-11-06T04:26:48.299Z,1010.53
2017-11-06T04:27:48.893Z,1010.59
2017-11-06T04:28:49.503Z,1010.62
2017-11-06T04:29:50.102Z,1010.64
2017-11-06T04:30:50.691Z,1010.68
2017-11-06T04:31:51.294Z,1010.75
2017-11-06T04:32:51.882Z,1010.77
2017-11-06T04:33:52.481Z,1010.77
2017-11-06T04:34:53.081Z,1010.80
2017-11-06T04:35:53.679Z,1010.77
2017-11-06T04:36:54.281Z,1010.74
2017-11-06T04:37:54.871Z,1010.74
2017-11-06T04:38:55.462Z,1010.79
2017-11-06T04:39:56.063Z,1010.84
2017-11-06T04:40:56.665Z,1010.85
2017-11-06T04:41:57.259Z,1010.84
2017-11-06T04:42:57.859Z,1010.83
2017-11-06T04:43:58.455Z,1010.84
2017-11-06T04:44:59.063Z,1010.82
2017-11-06T04:45:59.654Z,1010.91
2017-11-06T04:47:00.264Z,1010.90
2017-11-06T04:48:00.856Z,1010.90
2017-11-06T04:49:01.453Z,1010.87
2017-11-06T04:50:02.042Z,1010.89
2017-11-06T04:51:02.640Z,1010.92
2017-11-06T04:52:03.243Z,1010.91
2017-11-06T04:53:03.837Z,1010.89
2017-11-06T04:54:04.435Z,1010.91
2017-11-06T04:55:05.028Z,1010.91
2017-11-06T04:56:05.631Z,1010.94
2017-11-06T04:57:06.230Z,1010.95
2017-11-06T04:58:06.832Z,1010.98
2017-11-06T04:59:07.434Z,1010.98
2017-11-06T05:00:08.047Z,1010.94
2017-11-06T05:01:08.647Z,1010.95
2017-11-06T05:02:09.246Z,1010.94
2017-11-06T05:03:09.852Z,1010.94
2017-11-06T05:04:10.448Z,1010.98
2017-11-06T05:05:11.040Z,1010.96
2017-11-06T05:06:11.629Z,1010.94
2017-11-06T05:07:12.218Z,1010.96
2017-11-06T05:08:12.825Z,1010.98
2017-11-06T05:09:13.428Z,1011.00
2017-11-06T05:10:14.034Z,1011.03
2017-11-06T05:11:14.631Z,1011.05
2017-11-06T05:12:15.223Z,1011.05
2017-11-06T05:13:15.818Z,1011.07
2017-11-06T05:14:16.408Z,1011.05
2017-11-06T05:15:17.015Z,1011.12
2017-11-06T05:16:17.618Z,1011.13
2017-11-06T05:17:18.226Z,1011.15
2017-11-06T05:18:18.838Z,1011.22
2017-11-06T05:19:19.422Z,1011.23
2017-11-06T05:20:20.014Z,1011.27
2017-11-06T05:21:20.616Z,1011.26
2017-11-06T05:22:21.225Z,1011.27
2017-11-06T05:23:21.821Z,1011.25
2017-11-06T05:24:22.416Z,1011.28
2017-11-06T05:25:23.017Z,1011.32
2017-11-06T05:26:23.630Z,1011.27
2017-11-06T05:27:24.227Z,1011.33
2017-11-06T05:28:24.823Z,1011.32
2017-11-06T05:29:25.430Z,1011.31
2017-11-06T05:30:26.022Z,1011.34
2017-11-06T05:31:26.618Z,1011.33
2017-11-06T05:32:27.210Z,1011.31
2017-11-06T05:33:27.809Z,1011.34
2017-11-06T05:34:28.399Z,1011.35
2017-11-06T05:35:28.997Z,1011.40
2017-11-06T05:36:29.587Z,1011.43
2017-11-06T05:37:30.186Z,1011.45
2017-11-06T05:38:30.791Z,1011.47
2017-11-06T05:39:31.390Z,1011.46
2017-11-06T05:40:31.995Z,1011.50
2017-11-06T05:41:32.583Z,1011.48
2017-11-06T05:42:33.179Z,1011.50
2017-11-06T05:43:33.778Z,1011.52
2017-11-06T05:44:34.376Z,1011.52
2017-11-06T05:45:34.976Z,1011.55
2017-11-06T05:46:35.579Z,1011.55
2017-11-06T05:47:36.188Z,1011.57
2017-11-06T05:48:36.792Z,1011.55
2017-11-06T05:49:37.398Z,1011.60
2017-11-06T05:50:38.019Z,1011.62
2017-11-06T05:51:38.601Z,1011.63
2017-11-06T05:52:39.205Z,1011.64
2017-11-06T05:53:39.809Z,1011.67
2017-11-06T05:54:40.412Z,1011.71
2017-11-06T05:55:41.000Z,1011.74
2017-11-06T05:56:41.606Z,1011.76
2017-11-06T05:57:42.214Z,1011.78
2017-11-06T05:58:42.817Z,1011.82
2017-11-06T05:59:43.418Z,1011.89
2017-11-06T06:00:44.024Z,1011.88
2017-11-06T06:01:44.632Z,1011.85
2017-11-06T06:02:45.232Z,1011.91
2017-11-06T06:03:45.850Z,1011.92
2017-11-06T06:04:46.442Z,1011.99
2017-11-06T06:05:47.050Z,1011.99
2017-11-06T06:06:47.641Z,1011.99
2017-11-06T06:07:48.236Z,1012.00
2017-11-06T06:08:48.833Z,1011.97
2017-11-06T06:09:49.434Z,1011.97
2017-11-06T06:10:50.049Z,1011.96
2017-11-06T06:11:50.652Z,1011.98
2017-11-06T06:12:51.253Z,1011.96
2017-11-06T06:13:51.856Z,1011.98
2017-11-06T06:14:52.451Z,1012.03
2017-11-06T06:15:53.055Z,1012.02
2017-11-06T06:16:53.653Z,1012.04
2017-11-06T06:17:54.256Z,1012.09
2017-11-06T06:18:54.860Z,1012.10
2017-11-06T06:19:55.464Z,1012.04
2017-11-06T06:20:56.076Z,1012.07
2017-11-06T06:21:56.697Z,1012.13
2017-11-06T06:22:57.275Z,1012.14
2017-11-06T06:23:57.880Z,1012.17
2017-11-06T06:24:58.480Z,1012.16
2017-11-06T06:25:59.084Z,1012.20
2017-11-06T06:26:59.689Z,1012.22
2017-11-06T06:28:00.280Z,1012.24
2017-11-06T06:29:00.891Z,1012.24
2017-11-06T06:30:01.485Z,1012.23
2017-11-06T06:31:02.087Z,1012.24
2017-11-06T06:32:02.690Z,1012.27
2017-11-06T06:33:03.301Z,1012.27
2017-11-06T06:34:03.905Z,1012.29
2017-11-06T06:35:04.507Z,1012.29
2017-11-06T06:36:05.120Z,1012.25
2017-11-06T06:37:05.729Z,1012.30
2017-11-06T06:38:06.337Z,1012.35
2017-11-06T06:39:06.942Z,1012.37
2017-11-06T06:40:07.553Z,1012.36
2017-11-06T06:41:08.148Z,1012.41
2017-11-06T06:42:08.759Z,1012.40
2017-11-06T06:43:09.359Z,1012.44
2017-11-06T06:44:09.959Z,1012.42
2017-11-06T06:45:10.567Z,1012.49
2017-11-06T06:46:11.170Z,1012.52
2017-11-06T06:47:11.776Z,1012.55
2017-11-06T06:48:12.390Z,1012.54
2017-11-06T06:49:13.002Z,1012.54
2017-11-06T06:50:13.597Z,1012.56
2017-11-06T06:51:14.193Z,1012.58
2017-11-06T06:52:14.815Z,1012.64
2017-11-06T06:53:15.406Z,1012.65
2017-11-06T06:54:16.013Z,1012.64
2017-11-06T06:55:16.608Z,1012.67
2017-11-06T06:56:17.219Z,1012.70
2017-11-06T06:57:17.811Z,1012.72
2017-11-06T06:58:18.417Z,1012.72
2017-11-06T06:59:19.022Z,1012.73
2017-11-06T07:00:19.625Z,1012.75
2017-11-06T07:01:20.235Z,1012.71
2017-11-06T07:02:20.843Z,1012.77
2017-11-06T07:03:21.444Z,1012.74
2017-11-06T07:04:22.072Z,1012.75
2017-11-06T07:05:22.648Z,1012.75
2017-11-06T07:06:23.272Z,1012.77
2017-11-06T07:07:23.860Z,1012.79
2017-11-06T07:08:24.456Z,1012.76
2017-11-06T07:09:25.073Z,1012.76
2017-11-06T07:10:25.680Z,1012.77
2017-11-06T07:11:26.287Z,1012.78
2017-11-06T07:12:26.897Z,1012.83
2017-11-06T07:13:27.502Z,1012.84
2017-11-06T07:14:28.111Z,1012.87
2017-11-06T07:15:28.720Z,1012.92
2017-11-06T07:16:29.329Z,1012.95
2017-11-06T07:17:29.938Z,1012.94
2017-11-06T07:18:30.551Z,1012.96
2017-11-06T07:19:31.157Z,1012.94
2017-11-06T07:20:31.761Z,1012.93
2017-11-06T07:21:32.371Z,1012.95
2017-11-06T07:22:32.966Z,1012.97
2017-11-06T07:23:33.594Z,1012.96
2017-11-06T07:24:34.187Z,1012.96
2017-11-06T07:25:34.791Z,1012.97
2017-11-06T07:26:35.396Z,1012.97
2017-11-06T07:27:35.999Z,1012.96
2017-11-06T07:28:36.643Z,1012.96
2017-11-06T07:29:37.205Z,1012.98
2017-11-06T07:30:37.836Z,1013.00
2017-11-06T07:31:38.431Z,1012.98
2017-11-06T07:32:39.039Z,1013.03
2017-11-06T07:33:39.647Z,1012.98
2017-11-06T07:34:40.256Z,1013.03
2017-11-06T07:35:40.858Z,1013.03
2017-11-06T07:36:41.464Z,1013.05
2017-11-06T07:37:42.072Z,1013.10
2017-11-06T07:38:42.701Z,1013.11
2017-11-06T07:39:43.310Z,1013.15
2017-11-06T07:40:43.909Z,1013.15
2017-11-06T07:41:44.522Z,1013.16
2017-11-06T07:42:45.126Z,1013.20
2017-11-06T07:43:45.739Z,1013.22
2017-11-06T07:44:46.333Z,1013.21
2017-11-06T07:45:46.943Z,1013.24
2017-11-06T07:46:47.551Z,1013.23
2017-11-06T07:47:48.162Z,1013.29
2017-11-06T07:48:48.768Z,1013.26
2017-11-06T07:49:49.375Z,1013.36
2017-11-06T07:50:49.982Z,1013.36
2017-11-06T07:51:50.581Z,1013.35
2017-11-06T07:52:51.186Z,1013.34
2017-11-06T07:53:51.797Z,1013.39
2017-11-06T07:54:52.396Z,1013.42
2017-11-06T07:55:53.008Z,1013.40
2017-11-06T07:56:53.618Z,1013.35
2017-11-06T07:57:54.222Z,1013.41
2017-11-06T07:58:54.832Z,1013.43
2017-11-06T07:59:55.432Z,1013.42
2017-11-06T08:00:56.026Z,1013.41
2017-11-06T08:01:56.633Z,1013.43
2017-11-06T08:02:57.254Z,1013.48
2017-11-06T08:03:57.852Z,1013.47
2017-11-06T08:04:58.459Z,1013.46
2017-11-06T08:05:59.066Z,1013.49
2017-11-06T08:06:59.680Z,1013.49
2017-11-06T08:08:00.271Z,1013.51
2017-11-06T08:09:00.878Z,1013.45
2017-11-06T08:10:01.477Z,1013.48
2017-11-06T08:11:02.085Z,1013.45
2017-11-06T08:12:02.699Z,1013.54
2017-11-06T08:13:03.319Z,1013.51
2017-11-06T08:14:03.931Z,1013.57
2017-11-06T08:15:04.548Z,1013.59
2017-11-06T08:16:05.153Z,1013.63
2017-11-06T08:17:05.768Z,1013.63
2017-11-06T08:18:06.399Z,1013.63
2017-11-06T08:19:07.002Z,1013.60
2017-11-06T08:20:07.624Z,1013.66
2017-11-06T08:21:08.229Z,1013.65
2017-11-06T08:22:08.890Z,1013.64
2017-11-06T08:23:09.483Z,1013.60
2017-11-06T08:24:10.089Z,1013.55
2017-11-06T08:25:10.723Z,1013.57
2017-11-06T08:26:11.314Z,1013.55
2017-11-06T08:27:11.918Z,1013.53
2017-11-06T08:28:12.535Z,1013.53
2017-11-06T08:29:13.144Z,1013.60
2017-11-06T08:30:13.761Z,1013.60
2017-11-06T08:31:14.365Z,1013.61
2017-11-06T08:32:14.977Z,1013.57
2017-11-06T08:33:15.631Z,1013.61
2017-11-06T08:34:16.234Z,1013.59
2017-11-06T08:35:16.865Z,1013.61
2017-11-06T08:36:17.464Z,1013.65
2017-11-06T08:37:18.065Z,1013.63
2017-11-06T08:38:18.683Z,1013.64
2017-11-06T08:39:19.293Z,1013.65
2017-11-06T08:40:20.025Z,1013.68
2017-11-06T08:41:21.551Z,1013.66
2017-11-06T08:42:22.167Z,1013.66
2017-11-06T08:43:22.790Z,1013.68
2017-11-06T08:44:23.378Z,1013.68
2017-11-06T08:45:23.995Z,1013.71
2017-11-06T08:46:24.596Z,1013.70
2017-11-06T08:47:25.209Z,1013.68
2017-11-06T08:48:25.825Z,1013.74
2017-11-06T08:49:26.447Z,1013.77
2017-11-06T08:50:27.066Z,1013.80
2017-11-06T08:51:27.672Z,1013.84
2017-11-06T08:52:28.318Z,1013.82
2017-11-06T08:53:28.928Z,1013.82
2017-11-06T08:54:29.552Z,1013.84
2017-11-06T08:55:30.159Z,1013.83
2017-11-06T08:56:30.772Z,1013.83
2017-11-06T08:57:31.384Z,1013.87
2017-11-06T08:58:31.989Z,1013.86
2017-11-06T08:59:32.605Z,1013.85
2017-11-06T09:00:33.213Z,1013.87
2017-11-06T09:01:33.814Z,1013.82
2017-11-06T09:02:34.429Z,1013.84
2017-11-06T09:03:35.043Z,1013.80
2017-11-06T09:04:35.651Z,1013.80
2017-11-06T09:05:36.281Z,1013.84
2017-11-06T09:06:36.888Z,1013.82
2017-11-06T09:07:37.496Z,1013.82
2017-11-06T09:08:38.112Z,1013.89
2017-11-06T09:09:38.725Z,1013.91
2017-11-06T09:10:39.333Z,1013.98
2017-11-06T09:11:39.935Z,1013.95
2017-11-06T09:12:40.554Z,1013.90
2017-11-06T09:13:41.198Z,1013.91
2017-11-06T09:14:41.801Z,1013.88
2017-11-06T09:15:42.462Z,1013.90
2017-11-06T09:16:43.072Z,1013.93
2017-11-06T09:17:43.685Z,1013.96
2017-11-06T09:18:44.292Z,1013.92
2017-11-06T09:19:44.920Z,1013.83
2017-11-06T09:20:45.543Z,1013.83
2017-11-06T09:21:46.164Z,1013.84
2017-11-06T09:22:46.780Z,1013.90
2017-11-06T09:23:47.403Z,1013.87
2017-11-06T09:24:48.025Z,1013.84
2017-11-06T09:25:48.653Z,1013.83
2017-11-06T09:26:49.298Z,1013.91
2017-11-06T09:27:49.897Z,1013.89
2017-11-06T09:28:50.507Z,1013.91
2017-11-06T09:29:51.124Z,1013.94
2017-11-06T09:30:51.750Z,1013.96
2017-11-06T09:31:52.358Z,1013.97
2017-11-06T09:32:52.971Z,1013.95
2017-11-06T09:33:53.589Z,1014.03
2017-11-06T09:34:54.203Z,1014.01
2017-11-06T09:35:54.811Z,1014.00
2017-11-06T09:36:55.434Z,1014.07
2017-11-06T09:37:56.047Z,1014.06
2017-11-06T09:38:56.680Z,1014.01
2017-11-06T09:39:57.302Z,1014.05
2017-11-06T09:40:57.925Z,1014.06
2017-11-06T09:41:58.540Z,1014.06
2017-11-06T09:42:59.164Z,1014.08
2017-11-06T09:43:59.782Z,1014.13
2017-11-06T09:45:00.403Z,1014.15
2017-11-06T09:46:01.030Z,1014.13
2017-11-06T09:47:01.646Z,1014.19
2017-11-06T09:48:02.268Z,1014.16
2017-11-06T09:49:02.899Z,1014.18
2017-11-06T09:50:03.516Z,1014.20
2017-11-06T09:51:04.116Z,1014.20
2017-11-06T09:52:04.733Z,1014.17
2017-11-06T09:53:05.357Z,1014.18
2017-11-06T09:54:05.972Z,1014.16
2017-11-06T09:55:06.585Z,1014.18
2017-11-06T09:56:07.195Z,1014.16
2017-11-06T09:57:07.817Z,1014.20
2017-11-06T09:58:08.438Z,1014.17
2017-11-06T09:59:09.060Z,1014.21
2017-11-06T10:00:09.686Z,1014.19
2017-11-06T10:01:10.299Z,1014.21
2017-11-06T10:02:10.911Z,1014.24
2017-11-06T10:03:11.543Z,1014.25
2017-11-06T10:04:12.164Z,1014.31
2017-11-06T10:05:12.785Z,1014.29
2017-11-06T10:06:13.434Z,1014.25
2017-11-06T10:07:14.030Z,1014.29
2017-11-06T10:08:14.648Z,1014.27
2017-11-06T10:09:15.255Z,1014.27
2017-11-06T10:10:15.871Z,1014.28
2017-11-06T10:11:16.513Z,1014.23
2017-11-06T10:12:17.104Z,1014.26
2017-11-06T10:13:17.730Z,1014.30
2017-11-06T10:14:18.349Z,1014.27
2017-11-06T10:15:18.979Z,1014.23
2017-11-06T10:16:19.608Z,1014.27
2017-11-06T10:17:20.236Z,1014.26
2017-11-06T10:18:20.877Z,1014.30
2017-11-06T10:19:21.503Z,1014.37
2017-11-06T10:20:22.152Z,1014.35
2017-11-06T10:21:22.758Z,1014.34
2017-11-06T10:22:23.385Z,1014.38
2017-11-06T10:23:23.994Z,1014.38
2017-11-06T10:24:24.615Z,1014.39
2017-11-06T10:25:25.242Z,1014.33
2017-11-06T10:26:25.865Z,1014.35
2017-11-06T10:27:26.478Z,1014.36
2017-11-06T10:28:27.099Z,1014.36
2017-11-06T10:29:27.731Z,1014.39
2017-11-06T10:30:28.362Z,1014.34
2017-11-06T10:31:28.982Z,1014.35
2017-11-06T10:32:29.597Z,1014.37
2017-11-06T10:33:30.207Z,1014.37
2017-11-06T10:34:30.832Z,1014.32
2017-11-06T10:35:31.445Z,1014.36
2017-11-06T10:36:32.068Z,1014.41
2017-11-06T10:37:32.684Z,1014.38
2017-11-06T10:38:33.312Z,1014.35
2017-11-06T10:39:33.903Z,1014.39
2017-11-06T10:40:34.525Z,1014.35
2017-11-06T10:41:35.150Z,1014.36
2017-11-06T10:42:35.774Z,1014.29
2017-11-06T10:43:36.385Z,1014.34
2017-11-06T10:44:37.004Z,1014.35
2017-11-06T10:45:37.618Z,1014.37
2017-11-06T10:46:38.237Z,1014.38
2017-11-06T10:47:38.858Z,1014.35
2017-11-06T10:48:39.482Z,1014.37
2017-11-06T10:49:40.101Z,1014.37
2017-11-06T10:50:40.730Z,1014.43
2017-11-06T10:51:41.350Z,1014.41
2017-11-06T10:52:41.985Z,1014.41
2017-11-06T10:53:42.601Z,1014.37
2017-11-06T10:54:43.232Z,1014.39
2017-11-06T10:55:43.842Z,1014.38
2017-11-06T10:56:44.470Z,1014.39
2017-11-06T10:57:45.195Z,1014.40
2017-11-06T10:58:45.813Z,1014.41
2017-11-06T10:59:47.400Z,1014.42
2017-11-06T11:00:48.023Z,1014.42
2017-11-06T11:01:48.644Z,1014.43
2017-11-06T11:02:49.270Z,1014.39
2017-11-06T11:03:49.885Z,1014.38
2017-11-06T11:04:50.517Z,1014.27
2017-11-06T11:05:51.151Z,1014.39
2017-11-06T11:06:51.802Z,1014.39
2017-11-06T11:07:52.381Z,1014.40
2017-11-06T11:08:53.017Z,1014.42
2017-11-06T11:09:53.630Z,1014.43
2017-11-06T11:10:54.259Z,1014.40
2017-11-06T11:11:54.871Z,1014.41
2017-11-06T11:12:55.526Z,1014.36
2017-11-06T11:13:56.170Z,1014.37
2017-11-06T11:14:56.821Z,1014.34
2017-11-06T11:15:57.486Z,1014.42
2017-11-06T11:16:58.116Z,1014.38
2017-11-06T11:17:58.749Z,1014.39
2017-11-06T11:18:59.379Z,1014.38
2017-11-06T11:20:00.036Z,1014.40
2017-11-06T11:21:00.712Z,1014.40
2017-11-06T11:22:01.308Z,1014.39
2017-11-06T11:23:02.150Z,1014.35
2017-11-06T11:24:02.770Z,1014.36
2017-11-06T11:25:03.517Z,1014.34
2017-11-06T11:26:04.397Z,1014.35
2017-11-06T11:27:05.210Z,1014.36
2017-11-06T11:28:05.814Z,1014.32
2017-11-06T11:29:06.828Z,1014.35
2017-11-06T11:30:07.366Z,1014.32
2017-11-06T11:31:08.103Z,1014.32
2017-11-06T11:32:09.281Z,1014.29
2017-11-06T11:33:10.093Z,1014.34
2017-11-06T11:34:10.755Z,1014.32
2017-11-06T11:35:11.539Z,1014.31
2017-11-06T11:36:12.271Z,1014.33
2017-11-06T11:37:13.310Z,1014.32
2017-11-06T11:38:13.931Z,1014.34
2017-11-06T11:39:14.543Z,1014.32
2017-11-06T11:40:15.181Z,1014.32
2017-11-06T11:41:15.809Z,1014.33
2017-11-06T11:42:16.425Z,1014.29
2017-11-06T11:43:17.059Z,1014.32
2017-11-06T11:44:17.690Z,1014.33
2017-11-06T11:45:18.559Z,1014.33
2017-11-06T11:46:19.193Z,1014.34
2017-11-06T11:47:19.818Z,1014.34
2017-11-06T11:48:20.433Z,1014.33
2017-11-06T11:49:21.065Z,1014.31
2017-11-06T11:50:21.696Z,1014.30
2017-11-06T11:51:22.310Z,1014.33
2017-11-06T11:52:22.950Z,1014.31
2017-11-06T11:53:23.570Z,1014.35
2017-11-06T11:54:24.204Z,1014.37
2017-11-06T11:55:24.841Z,1014.37
2017-11-06T11:56:25.476Z,1014.38
2017-11-06T11:57:26.112Z,1014.34
2017-11-06T11:58:26.742Z,1014.30
2017-11-06T11:59:27.374Z,1014.32
2017-11-06T12:00:28.014Z,1014.35
2017-11-06T12:01:28.645Z,1014.39
2017-11-06T12:02:29.474Z,1014.36
2017-11-06T12:03:30.089Z,1014.36
2017-11-06T12:04:30.709Z,1014.38
2017-11-06T12:05:31.346Z,1014.40
2017-11-06T12:06:31.959Z,1014.42
2017-11-06T12:07:32.587Z,1014.46
2017-11-06T12:08:33.201Z,1014.45
2017-11-06T12:09:33.849Z,1014.43
2017-11-06T12:10:34.450Z,1014.39
2017-11-06T12:11:35.287Z,1014.42
2017-11-06T12:12:35.910Z,1014.41
2017-11-06T12:13:36.564Z,1014.36